sensor_id;sensor_type;location;lat;lon;timestamp;P1;durP1;ratioP1;P2;durP2;ratioP2
4375;SDS011;2202;50.866;12.750;2024-03-02T00:00:32;39.37;;;23.03;;
4375;SDS011;2202;50.866;12.750;2024-03-02T00:02:58;35.47;;;23.43;;
4375;SDS011;2202;50.866;12.750;2024-03-02T00:05:25;41.10;;;24.03;;
4375;SDS011;2202;50.866;12.750;2024-03-02T00:07:52;36.90;;;23.63;;
4375;SDS011;2202;50.866;12.750;2024-03-02T00:10:22;40.13;;;23.63;;
4375;SDS011;2202;50.866;12.750;2024-03-02T00:12:54;38.67;;;24.50;;
4375;SDS011;2202;50.866;12.750;2024-03-02T00:15:29;40.63;;;24.70;;
4375;SDS011;2202;50.866;12.750;2024-03-02T00:18:07;39.83;;;24.50;;
4375;SDS011;2202;50.866;12.750;2024-03-02T00:20:34;47.93;;;26.67;;
4375;SDS011;2202;50.866;12.750;2024-03-02T00:23:02;36.60;;;23.57;;
4375;SDS011;2202;50.866;12.750;2024-03-02T00:25:35;38.53;;;24.30;;
4375;SDS011;2202;50.866;12.750;2024-03-02T00:28:04;41.93;;;24.07;;
4375;SDS011;2202;50.866;12.750;2024-03-02T00:30:48;39.33;;;23.67;;
4375;SDS011;2202;50.866;12.750;2024-03-02T00:33:26;39.90;;;23.70;;
4375;SDS011;2202;50.866;12.750;2024-03-02T00:35:54;33.90;;;22.33;;
4375;SDS011;2202;50.866;12.750;2024-03-02T00:38:21;39.93;;;23.67;;
4375;SDS011;2202;50.866;12.750;2024-03-02T00:40:49;43.13;;;23.27;;
4375;SDS011;2202;50.866;12.750;2024-03-02T00:46:10;37.80;;;24.07;;
4375;SDS011;2202;50.866;12.750;2024-03-02T00:48:37;34.83;;;22.57;;
4375;SDS011;2202;50.866;12.750;2024-03-02T00:51:05;38.87;;;23.20;;
4375;SDS011;2202;50.866;12.750;2024-03-02T00:53:32;46.27;;;24.97;;
4375;SDS011;2202;50.866;12.750;2024-03-02T00:56:00;36.87;;;23.03;;
4375;SDS011;2202;50.866;12.750;2024-03-02T00:58:28;37.47;;;21.30;;
4375;SDS011;2202;50.866;12.750;2024-03-02T01:00:55;34.83;;;22.80;;
4375;SDS011;2202;50.866;12.750;2024-03-02T01:03:23;37.57;;;21.83;;
4375;SDS011;2202;50.866;12.750;2024-03-02T01:05:51;37.77;;;23.00;;
4375;SDS011;2202;50.866;12.750;2024-03-02T01:08:17;39.63;;;22.60;;
4375;SDS011;2202;50.866;12.750;2024-03-02T01:10:44;39.20;;;22.93;;
4375;SDS011;2202;50.866;12.750;2024-03-02T01:13:13;42.03;;;23.63;;
4375;SDS011;2202;50.866;12.750;2024-03-02T01:15:40;36.40;;;24.57;;
4375;SDS011;2202;50.866;12.750;2024-03-02T01:18:07;40.03;;;26.23;;
4375;SDS011;2202;50.866;12.750;2024-03-02T01:20:35;40.07;;;27.03;;
4375;SDS011;2202;50.866;12.750;2024-03-02T01:23:02;44.87;;;25.43;;
4375;SDS011;2202;50.866;12.750;2024-03-02T01:25:29;51.13;;;27.90;;
4375;SDS011;2202;50.866;12.750;2024-03-02T01:27:56;42.93;;;25.70;;
4375;SDS011;2202;50.866;12.750;2024-03-02T01:30:23;47.83;;;27.27;;
4375;SDS011;2202;50.866;12.750;2024-03-02T01:32:50;41.70;;;25.97;;
4375;SDS011;2202;50.866;12.750;2024-03-02T01:35:16;43.00;;;27.10;;
4375;SDS011;2202;50.866;12.750;2024-03-02T01:37:44;43.83;;;27.67;;
4375;SDS011;2202;50.866;12.750;2024-03-02T01:40:11;52.30;;;29.47;;
4375;SDS011;2202;50.866;12.750;2024-03-02T01:42:38;48.57;;;28.43;;
4375;SDS011;2202;50.866;12.750;2024-03-02T01:45:06;46.23;;;29.10;;
4375;SDS011;2202;50.866;12.750;2024-03-02T01:47:34;51.20;;;30.40;;
4375;SDS011;2202;50.866;12.750;2024-03-02T01:50:01;55.00;;;30.07;;
4375;SDS011;2202;50.866;12.750;2024-03-02T01:52:28;51.73;;;31.47;;
4375;SDS011;2202;50.866;12.750;2024-03-02T01:54:57;49.50;;;29.70;;
4375;SDS011;2202;50.866;12.750;2024-03-02T01:57:24;46.53;;;30.20;;
4375;SDS011;2202;50.866;12.750;2024-03-02T01:59:50;48.97;;;30.50;;
4375;SDS011;2202;50.866;12.750;2024-03-02T02:02:18;46.63;;;29.67;;
4375;SDS011;2202;50.866;12.750;2024-03-02T02:04:45;44.83;;;30.90;;
4375;SDS011;2202;50.866;12.750;2024-03-02T02:07:12;46.50;;;28.60;;
4375;SDS011;2202;50.866;12.750;2024-03-02T02:09:40;49.20;;;29.57;;
4375;SDS011;2202;50.866;12.750;2024-03-02T02:12:09;46.43;;;30.57;;
4375;SDS011;2202;50.866;12.750;2024-03-02T02:14:36;43.07;;;30.40;;
4375;SDS011;2202;50.866;12.750;2024-03-02T02:17:05;47.80;;;28.97;;
4375;SDS011;2202;50.866;12.750;2024-03-02T02:19:31;47.60;;;29.40;;
4375;SDS011;2202;50.866;12.750;2024-03-02T02:22:00;45.70;;;31.63;;
4375;SDS011;2202;50.866;12.750;2024-03-02T02:24:26;49.67;;;30.17;;
4375;SDS011;2202;50.866;12.750;2024-03-02T02:26:53;42.80;;;28.83;;
4375;SDS011;2202;50.866;12.750;2024-03-02T02:29:20;45.60;;;27.60;;
4375;SDS011;2202;50.866;12.750;2024-03-02T02:31:47;48.33;;;29.60;;
4375;SDS011;2202;50.866;12.750;2024-03-02T02:34:14;40.13;;;28.60;;
4375;SDS011;2202;50.866;12.750;2024-03-02T02:36:41;46.00;;;30.63;;
4375;SDS011;2202;50.866;12.750;2024-03-02T02:39:10;39.87;;;27.70;;
4375;SDS011;2202;50.866;12.750;2024-03-02T02:41:39;45.67;;;30.13;;
4375;SDS011;2202;50.866;12.750;2024-03-02T02:44:06;44.57;;;27.83;;
4375;SDS011;2202;50.866;12.750;2024-03-02T02:46:33;47.73;;;29.37;;
4375;SDS011;2202;50.866;12.750;2024-03-02T02:49:00;42.37;;;27.40;;
4375;SDS011;2202;50.866;12.750;2024-03-02T02:51:27;42.23;;;28.23;;
4375;SDS011;2202;50.866;12.750;2024-03-02T02:53:54;43.10;;;28.00;;
4375;SDS011;2202;50.866;12.750;2024-03-02T02:56:22;43.73;;;27.20;;
4375;SDS011;2202;50.866;12.750;2024-03-02T02:58:49;50.70;;;29.33;;
4375;SDS011;2202;50.866;12.750;2024-03-02T03:01:16;46.27;;;27.90;;
4375;SDS011;2202;50.866;12.750;2024-03-02T03:03:44;46.37;;;29.23;;
4375;SDS011;2202;50.866;12.750;2024-03-02T03:06:11;48.60;;;30.50;;
4375;SDS011;2202;50.866;12.750;2024-03-02T03:08:37;40.20;;;25.23;;
4375;SDS011;2202;50.866;12.750;2024-03-02T03:11:04;45.07;;;27.97;;
4375;SDS011;2202;50.866;12.750;2024-03-02T03:13:32;48.80;;;27.27;;
4375;SDS011;2202;50.866;12.750;2024-03-02T03:15:59;43.43;;;27.43;;
4375;SDS011;2202;50.866;12.750;2024-03-02T03:18:26;41.70;;;25.20;;
4375;SDS011;2202;50.866;12.750;2024-03-02T03:20:53;43.87;;;29.40;;
4375;SDS011;2202;50.866;12.750;2024-03-02T03:23:20;49.63;;;29.00;;
4375;SDS011;2202;50.866;12.750;2024-03-02T03:25:47;44.60;;;28.33;;
4375;SDS011;2202;50.866;12.750;2024-03-02T03:28:14;48.57;;;29.97;;
4375;SDS011;2202;50.866;12.750;2024-03-02T03:30:42;46.00;;;30.30;;
4375;SDS011;2202;50.866;12.750;2024-03-02T03:33:09;43.37;;;27.47;;
4375;SDS011;2202;50.866;12.750;2024-03-02T03:35:36;46.23;;;28.93;;
4375;SDS011;2202;50.866;12.750;2024-03-02T03:38:03;43.60;;;28.40;;
4375;SDS011;2202;50.866;12.750;2024-03-02T03:40:30;48.17;;;26.80;;
4375;SDS011;2202;50.866;12.750;2024-03-02T03:42:57;46.80;;;28.83;;
4375;SDS011;2202;50.866;12.750;2024-03-02T03:45:25;41.53;;;26.57;;
4375;SDS011;2202;50.866;12.750;2024-03-02T03:47:53;41.53;;;27.10;;
4375;SDS011;2202;50.866;12.750;2024-03-02T03:50:21;44.83;;;29.80;;
4375;SDS011;2202;50.866;12.750;2024-03-02T03:52:48;48.90;;;28.77;;
4375;SDS011;2202;50.866;12.750;2024-03-02T03:55:14;42.87;;;26.47;;
4375;SDS011;2202;50.866;12.750;2024-03-02T03:57:41;45.67;;;29.70;;
4375;SDS011;2202;50.866;12.750;2024-03-02T04:00:08;42.77;;;26.17;;
4375;SDS011;2202;50.866;12.750;2024-03-02T04:02:37;43.47;;;27.57;;
4375;SDS011;2202;50.866;12.750;2024-03-02T04:05:05;41.37;;;27.07;;
4375;SDS011;2202;50.866;12.750;2024-03-02T04:07:35;44.83;;;27.23;;
4375;SDS011;2202;50.866;12.750;2024-03-02T04:10:06;48.40;;;26.17;;
4375;SDS011;2202;50.866;12.750;2024-03-02T04:12:34;39.77;;;26.50;;
4375;SDS011;2202;50.866;12.750;2024-03-02T04:15:02;42.53;;;26.57;;
4375;SDS011;2202;50.866;12.750;2024-03-02T04:17:30;48.30;;;30.17;;
4375;SDS011;2202;50.866;12.750;2024-03-02T04:19:58;41.87;;;27.00;;
4375;SDS011;2202;50.866;12.750;2024-03-02T04:22:27;39.53;;;25.97;;
4375;SDS011;2202;50.866;12.750;2024-03-02T04:24:54;41.93;;;25.60;;
4375;SDS011;2202;50.866;12.750;2024-03-02T04:27:20;42.00;;;26.50;;
4375;SDS011;2202;50.866;12.750;2024-03-02T04:29:47;39.13;;;25.47;;
4375;SDS011;2202;50.866;12.750;2024-03-02T04:32:14;40.50;;;26.50;;
4375;SDS011;2202;50.866;12.750;2024-03-02T04:34:41;42.80;;;27.23;;
4375;SDS011;2202;50.866;12.750;2024-03-02T04:37:10;37.97;;;25.23;;
4375;SDS011;2202;50.866;12.750;2024-03-02T04:39:40;33.00;;;23.70;;
4375;SDS011;2202;50.866;12.750;2024-03-02T04:42:07;41.97;;;26.90;;
4375;SDS011;2202;50.866;12.750;2024-03-02T04:44:34;39.13;;;24.80;;
4375;SDS011;2202;50.866;12.750;2024-03-02T04:47:02;39.37;;;25.23;;
4375;SDS011;2202;50.866;12.750;2024-03-02T04:49:29;41.30;;;25.17;;
4375;SDS011;2202;50.866;12.750;2024-03-02T04:51:56;39.30;;;25.70;;
4375;SDS011;2202;50.866;12.750;2024-03-02T04:54:23;38.87;;;24.10;;
4375;SDS011;2202;50.866;12.750;2024-03-02T04:56:51;41.70;;;26.40;;
4375;SDS011;2202;50.866;12.750;2024-03-02T04:59:18;45.13;;;27.10;;
4375;SDS011;2202;50.866;12.750;2024-03-02T05:01:45;35.33;;;24.73;;
4375;SDS011;2202;50.866;12.750;2024-03-02T05:04:13;47.03;;;28.13;;
4375;SDS011;2202;50.866;12.750;2024-03-02T05:06:40;45.53;;;27.53;;
4375;SDS011;2202;50.866;12.750;2024-03-02T05:09:07;44.70;;;26.43;;
4375;SDS011;2202;50.866;12.750;2024-03-02T05:11:34;45.10;;;28.50;;
4375;SDS011;2202;50.866;12.750;2024-03-02T05:14:38;51.00;;;30.77;;
4375;SDS011;2202;50.866;12.750;2024-03-02T05:17:05;47.40;;;27.03;;
4375;SDS011;2202;50.866;12.750;2024-03-02T05:19:32;39.97;;;28.20;;
4375;SDS011;2202;50.866;12.750;2024-03-02T05:21:59;43.20;;;28.07;;
4375;SDS011;2202;50.866;12.750;2024-03-02T05:24:26;48.50;;;28.70;;
4375;SDS011;2202;50.866;12.750;2024-03-02T05:26:53;55.20;;;30.53;;
4375;SDS011;2202;50.866;12.750;2024-03-02T05:29:20;40.73;;;25.07;;
4375;SDS011;2202;50.866;12.750;2024-03-02T05:31:48;50.00;;;27.13;;
4375;SDS011;2202;50.866;12.750;2024-03-02T05:34:15;46.87;;;26.87;;
4375;SDS011;2202;50.866;12.750;2024-03-02T05:36:43;49.60;;;25.17;;
4375;SDS011;2202;50.866;12.750;2024-03-02T05:39:10;49.17;;;27.50;;
4375;SDS011;2202;50.866;12.750;2024-03-02T05:41:37;41.20;;;24.83;;
4375;SDS011;2202;50.866;12.750;2024-03-02T05:44:04;42.20;;;26.90;;
4375;SDS011;2202;50.866;12.750;2024-03-02T05:46:31;42.87;;;26.50;;
4375;SDS011;2202;50.866;12.750;2024-03-02T05:49:00;46.10;;;25.23;;
4375;SDS011;2202;50.866;12.750;2024-03-02T05:51:27;44.77;;;26.83;;
4375;SDS011;2202;50.866;12.750;2024-03-02T05:53:53;36.60;;;23.37;;
4375;SDS011;2202;50.866;12.750;2024-03-02T05:56:20;53.93;;;25.57;;
4375;SDS011;2202;50.866;12.750;2024-03-02T05:58:47;40.47;;;24.60;;
4375;SDS011;2202;50.866;12.750;2024-03-02T06:01:26;39.27;;;25.03;;
4375;SDS011;2202;50.866;12.750;2024-03-02T06:03:54;43.33;;;24.73;;
4375;SDS011;2202;50.866;12.750;2024-03-02T06:06:23;42.07;;;24.10;;
4375;SDS011;2202;50.866;12.750;2024-03-02T06:08:50;43.80;;;24.60;;
4375;SDS011;2202;50.866;12.750;2024-03-02T06:11:17;44.93;;;27.37;;
4375;SDS011;2202;50.866;12.750;2024-03-02T06:13:45;41.47;;;25.20;;
4375;SDS011;2202;50.866;12.750;2024-03-02T06:16:12;44.63;;;24.00;;
4375;SDS011;2202;50.866;12.750;2024-03-02T06:18:39;40.60;;;24.27;;
4375;SDS011;2202;50.866;12.750;2024-03-02T06:21:06;47.60;;;23.97;;
4375;SDS011;2202;50.866;12.750;2024-03-02T06:23:34;38.97;;;21.67;;
4375;SDS011;2202;50.866;12.750;2024-03-02T06:26:01;45.13;;;24.43;;
4375;SDS011;2202;50.866;12.750;2024-03-02T06:28:28;35.93;;;22.13;;
4375;SDS011;2202;50.866;12.750;2024-03-02T06:30:55;36.70;;;22.93;;
4375;SDS011;2202;50.866;12.750;2024-03-02T06:33:22;37.07;;;22.43;;
4375;SDS011;2202;50.866;12.750;2024-03-02T06:35:50;42.17;;;23.93;;
4375;SDS011;2202;50.866;12.750;2024-03-02T06:38:17;37.87;;;22.77;;
4375;SDS011;2202;50.866;12.750;2024-03-02T06:40:45;38.60;;;22.23;;
4375;SDS011;2202;50.866;12.750;2024-03-02T06:43:13;40.60;;;23.20;;
4375;SDS011;2202;50.866;12.750;2024-03-02T06:45:41;38.53;;;22.53;;
4375;SDS011;2202;50.866;12.750;2024-03-02T06:48:08;38.27;;;23.63;;
4375;SDS011;2202;50.866;12.750;2024-03-02T06:50:35;38.47;;;23.60;;
4375;SDS011;2202;50.866;12.750;2024-03-02T06:53:02;36.57;;;22.70;;
4375;SDS011;2202;50.866;12.750;2024-03-02T06:55:30;38.73;;;21.37;;
4375;SDS011;2202;50.866;12.750;2024-03-02T06:57:58;37.53;;;23.13;;
4375;SDS011;2202;50.866;12.750;2024-03-02T07:00:25;41.37;;;21.27;;
4375;SDS011;2202;50.866;12.750;2024-03-02T07:02:52;46.00;;;21.70;;
4375;SDS011;2202;50.866;12.750;2024-03-02T07:05:19;35.07;;;21.03;;
4375;SDS011;2202;50.866;12.750;2024-03-02T07:07:47;42.17;;;23.97;;
4375;SDS011;2202;50.866;12.750;2024-03-02T07:10:14;36.70;;;24.47;;
4375;SDS011;2202;50.866;12.750;2024-03-02T07:12:41;43.20;;;23.93;;
4375;SDS011;2202;50.866;12.750;2024-03-02T07:15:11;42.13;;;25.07;;
4375;SDS011;2202;50.866;12.750;2024-03-02T07:17:54;40.47;;;23.77;;
4375;SDS011;2202;50.866;12.750;2024-03-02T07:20:21;40.50;;;24.20;;
4375;SDS011;2202;50.866;12.750;2024-03-02T07:22:48;38.30;;;24.67;;
4375;SDS011;2202;50.866;12.750;2024-03-02T07:25:15;37.77;;;22.90;;
4375;SDS011;2202;50.866;12.750;2024-03-02T07:27:42;37.00;;;22.57;;
4375;SDS011;2202;50.866;12.750;2024-03-02T07:30:13;36.10;;;21.63;;
4375;SDS011;2202;50.866;12.750;2024-03-02T07:32:41;30.73;;;20.73;;
4375;SDS011;2202;50.866;12.750;2024-03-02T07:35:11;32.97;;;21.87;;
4375;SDS011;2202;50.866;12.750;2024-03-02T07:37:39;31.37;;;20.03;;
4375;SDS011;2202;50.866;12.750;2024-03-02T07:40:07;41.43;;;22.10;;
4375;SDS011;2202;50.866;12.750;2024-03-02T07:42:37;39.43;;;22.03;;
4375;SDS011;2202;50.866;12.750;2024-03-02T07:45:05;29.70;;;19.37;;
4375;SDS011;2202;50.866;12.750;2024-03-02T07:47:34;29.70;;;19.97;;
4375;SDS011;2202;50.866;12.750;2024-03-02T07:50:02;26.57;;;19.00;;
4375;SDS011;2202;50.866;12.750;2024-03-02T07:52:31;28.60;;;18.73;;
4375;SDS011;2202;50.866;12.750;2024-03-02T07:54:58;27.10;;;19.13;;
4375;SDS011;2202;50.866;12.750;2024-03-02T07:57:25;28.07;;;20.60;;
4375;SDS011;2202;50.866;12.750;2024-03-02T07:59:52;26.50;;;19.67;;
4375;SDS011;2202;50.866;12.750;2024-03-02T08:02:20;28.53;;;20.03;;
4375;SDS011;2202;50.866;12.750;2024-03-02T08:04:48;28.80;;;18.63;;
4375;SDS011;2202;50.866;12.750;2024-03-02T08:07:15;29.50;;;19.47;;
4375;SDS011;2202;50.866;12.750;2024-03-02T08:09:43;27.80;;;19.13;;
4375;SDS011;2202;50.866;12.750;2024-03-02T08:12:11;27.43;;;18.40;;
4375;SDS011;2202;50.866;12.750;2024-03-02T08:14:38;28.27;;;18.73;;
4375;SDS011;2202;50.866;12.750;2024-03-02T08:17:05;26.90;;;18.33;;
4375;SDS011;2202;50.866;12.750;2024-03-02T08:19:35;34.30;;;19.00;;
4375;SDS011;2202;50.866;12.750;2024-03-02T08:22:04;26.90;;;18.10;;
4375;SDS011;2202;50.866;12.750;2024-03-02T08:24:31;32.10;;;19.40;;
4375;SDS011;2202;50.866;12.750;2024-03-02T08:27:02;29.50;;;19.30;;
4375;SDS011;2202;50.866;12.750;2024-03-02T08:29:29;25.77;;;17.70;;
4375;SDS011;2202;50.866;12.750;2024-03-02T08:31:56;33.20;;;17.17;;
4375;SDS011;2202;50.866;12.750;2024-03-02T08:34:24;27.00;;;17.30;;
4375;SDS011;2202;50.866;12.750;2024-03-02T08:36:51;29.67;;;19.03;;
4375;SDS011;2202;50.866;12.750;2024-03-02T08:39:19;25.30;;;17.30;;
4375;SDS011;2202;50.866;12.750;2024-03-02T08:41:47;25.23;;;18.80;;
4375;SDS011;2202;50.866;12.750;2024-03-02T08:44:14;24.90;;;18.23;;
4375;SDS011;2202;50.866;12.750;2024-03-02T08:46:42;28.57;;;19.07;;
4375;SDS011;2202;50.866;12.750;2024-03-02T08:49:10;24.90;;;19.47;;
4375;SDS011;2202;50.866;12.750;2024-03-02T08:51:37;28.17;;;19.90;;
4375;SDS011;2202;50.866;12.750;2024-03-02T08:54:04;28.57;;;18.83;;
4375;SDS011;2202;50.866;12.750;2024-03-02T08:56:33;29.47;;;18.93;;
4375;SDS011;2202;50.866;12.750;2024-03-02T08:59:00;24.50;;;17.33;;
4375;SDS011;2202;50.866;12.750;2024-03-02T09:01:27;26.80;;;17.07;;
4375;SDS011;2202;50.866;12.750;2024-03-02T09:03:54;27.43;;;18.70;;
4375;SDS011;2202;50.866;12.750;2024-03-02T09:06:21;25.47;;;17.87;;
4375;SDS011;2202;50.866;12.750;2024-03-02T09:08:48;28.47;;;18.90;;
4375;SDS011;2202;50.866;12.750;2024-03-02T09:11:17;32.40;;;18.47;;
4375;SDS011;2202;50.866;12.750;2024-03-02T09:13:45;31.20;;;18.97;;
4375;SDS011;2202;50.866;12.750;2024-03-02T09:16:12;31.03;;;18.63;;
4375;SDS011;2202;50.866;12.750;2024-03-02T09:18:39;30.67;;;19.90;;
4375;SDS011;2202;50.866;12.750;2024-03-02T09:21:06;28.30;;;18.50;;
4375;SDS011;2202;50.866;12.750;2024-03-02T09:23:35;28.80;;;20.03;;
4375;SDS011;2202;50.866;12.750;2024-03-02T09:26:03;28.83;;;18.90;;
4375;SDS011;2202;50.866;12.750;2024-03-02T09:28:30;30.73;;;19.53;;
4375;SDS011;2202;50.866;12.750;2024-03-02T09:30:58;27.87;;;17.10;;
4375;SDS011;2202;50.866;12.750;2024-03-02T09:33:27;30.13;;;19.80;;
4375;SDS011;2202;50.866;12.750;2024-03-02T09:35:54;27.37;;;19.00;;
4375;SDS011;2202;50.866;12.750;2024-03-02T09:38:21;28.00;;;18.17;;
4375;SDS011;2202;50.866;12.750;2024-03-02T09:40:48;32.97;;;19.47;;
4375;SDS011;2202;50.866;12.750;2024-03-02T09:43:16;24.60;;;18.40;;
4375;SDS011;2202;50.866;12.750;2024-03-02T09:45:43;29.53;;;17.60;;
4375;SDS011;2202;50.866;12.750;2024-03-02T09:48:13;28.50;;;18.00;;
4375;SDS011;2202;50.866;12.750;2024-03-02T09:50:43;25.47;;;17.03;;
4375;SDS011;2202;50.866;12.750;2024-03-02T09:53:11;25.57;;;17.07;;
4375;SDS011;2202;50.866;12.750;2024-03-02T09:55:39;31.50;;;17.10;;
4375;SDS011;2202;50.866;12.750;2024-03-02T09:58:09;23.57;;;16.73;;
4375;SDS011;2202;50.866;12.750;2024-03-02T10:00:37;24.33;;;17.00;;
4375;SDS011;2202;50.866;12.750;2024-03-02T10:03:04;24.00;;;17.27;;
4375;SDS011;2202;50.866;12.750;2024-03-02T10:05:39;32.17;;;21.33;;
4375;SDS011;2202;50.866;12.750;2024-03-02T10:08:06;23.10;;;16.63;;
4375;SDS011;2202;50.866;12.750;2024-03-02T10:10:40;24.80;;;18.90;;
4375;SDS011;2202;50.866;12.750;2024-03-02T10:13:09;27.20;;;16.30;;
4375;SDS011;2202;50.866;12.750;2024-03-02T10:15:37;22.27;;;16.67;;
4375;SDS011;2202;50.866;12.750;2024-03-02T10:18:08;17.53;;;13.37;;
4375;SDS011;2202;50.866;12.750;2024-03-02T10:20:37;18.47;;;13.73;;
4375;SDS011;2202;50.866;12.750;2024-03-02T10:23:12;17.20;;;13.17;;
4375;SDS011;2202;50.866;12.750;2024-03-02T10:25:41;22.40;;;15.70;;
4375;SDS011;2202;50.866;12.750;2024-03-02T10:28:10;15.80;;;13.20;;
4375;SDS011;2202;50.866;12.750;2024-03-02T10:30:38;14.93;;;11.67;;
4375;SDS011;2202;50.866;12.750;2024-03-02T10:33:05;16.77;;;13.67;;
4375;SDS011;2202;50.866;12.750;2024-03-02T10:35:34;17.50;;;12.57;;
4375;SDS011;2202;50.866;12.750;2024-03-02T10:38:05;17.70;;;13.47;;
4375;SDS011;2202;50.866;12.750;2024-03-02T10:40:32;17.97;;;13.53;;
4375;SDS011;2202;50.866;12.750;2024-03-02T10:43:00;18.67;;;14.10;;
4375;SDS011;2202;50.866;12.750;2024-03-02T10:45:30;16.97;;;11.60;;
4375;SDS011;2202;50.866;12.750;2024-03-02T10:47:58;19.40;;;12.17;;
4375;SDS011;2202;50.866;12.750;2024-03-02T10:50:26;17.43;;;12.93;;
4375;SDS011;2202;50.866;12.750;2024-03-02T10:52:54;12.97;;;10.63;;
4375;SDS011;2202;50.866;12.750;2024-03-02T10:55:22;12.63;;;10.17;;
4375;SDS011;2202;50.866;12.750;2024-03-02T10:57:50;14.23;;;9.97;;
4375;SDS011;2202;50.866;12.750;2024-03-02T11:00:19;11.17;;;8.90;;
4375;SDS011;2202;50.866;12.750;2024-03-02T11:02:52;11.47;;;8.00;;
4375;SDS011;2202;50.866;12.750;2024-03-02T11:05:25;9.80;;;8.30;;
4375;SDS011;2202;50.866;12.750;2024-03-02T11:07:56;9.50;;;8.27;;
4375;SDS011;2202;50.866;12.750;2024-03-02T11:10:30;10.40;;;8.30;;
4375;SDS011;2202;50.866;12.750;2024-03-02T11:13:02;13.20;;;8.30;;
4375;SDS011;2202;50.866;12.750;2024-03-02T11:15:32;12.67;;;9.03;;
4375;SDS011;2202;50.866;12.750;2024-03-02T11:18:03;11.10;;;8.20;;
4375;SDS011;2202;50.866;12.750;2024-03-02T11:20:33;10.13;;;8.33;;
4375;SDS011;2202;50.866;12.750;2024-03-02T11:23:07;11.90;;;8.30;;
4375;SDS011;2202;50.866;12.750;2024-03-02T11:25:36;11.77;;;7.87;;
4375;SDS011;2202;50.866;12.750;2024-03-02T11:28:04;7.87;;;6.73;;
4375;SDS011;2202;50.866;12.750;2024-03-02T11:30:50;7.43;;;6.20;;
4375;SDS011;2202;50.866;12.750;2024-03-02T11:33:24;6.00;;;5.40;;
4375;SDS011;2202;50.866;12.750;2024-03-02T11:35:57;8.80;;;6.60;;
4375;SDS011;2202;50.866;12.750;2024-03-02T11:38:31;15.10;;;11.13;;
4375;SDS011;2202;50.866;12.750;2024-03-02T11:41:01;6.30;;;5.47;;
4375;SDS011;2202;50.866;12.750;2024-03-02T11:43:29;8.70;;;7.80;;
4375;SDS011;2202;50.866;12.750;2024-03-02T11:45:58;6.20;;;5.33;;
4375;SDS011;2202;50.866;12.750;2024-03-02T11:48:25;7.80;;;6.20;;
4375;SDS011;2202;50.866;12.750;2024-03-02T11:50:52;8.23;;;5.93;;
4375;SDS011;2202;50.866;12.750;2024-03-02T11:53:20;7.87;;;7.07;;
4375;SDS011;2202;50.866;12.750;2024-03-02T11:55:48;8.33;;;6.70;;
4375;SDS011;2202;50.866;12.750;2024-03-02T11:58:17;13.80;;;9.70;;
4375;SDS011;2202;50.866;12.750;2024-03-02T12:00:45;12.80;;;8.90;;
4375;SDS011;2202;50.866;12.750;2024-03-02T12:03:13;14.43;;;10.13;;
4375;SDS011;2202;50.866;12.750;2024-03-02T12:05:40;14.70;;;11.90;;
4375;SDS011;2202;50.866;12.750;2024-03-02T12:08:08;12.63;;;10.57;;
4375;SDS011;2202;50.866;12.750;2024-03-02T12:10:36;11.13;;;9.33;;
4375;SDS011;2202;50.866;12.750;2024-03-02T12:13:04;12.90;;;9.83;;
4375;SDS011;2202;50.866;12.750;2024-03-02T12:15:34;14.60;;;9.57;;
4375;SDS011;2202;50.866;12.750;2024-03-02T12:18:03;11.30;;;8.30;;
4375;SDS011;2202;50.866;12.750;2024-03-02T12:20:31;10.30;;;8.63;;
4375;SDS011;2202;50.866;12.750;2024-03-02T12:23:00;10.03;;;7.87;;
4375;SDS011;2202;50.866;12.750;2024-03-02T12:25:28;9.10;;;7.97;;
4375;SDS011;2202;50.866;12.750;2024-03-02T12:27:56;8.13;;;6.97;;
4375;SDS011;2202;50.866;12.750;2024-03-02T12:30:26;7.27;;;6.00;;
4375;SDS011;2202;50.866;12.750;2024-03-02T12:32:56;10.70;;;5.80;;
4375;SDS011;2202;50.866;12.750;2024-03-02T12:35:24;6.90;;;4.10;;
4375;SDS011;2202;50.866;12.750;2024-03-02T12:37:52;5.50;;;4.20;;
4375;SDS011;2202;50.866;12.750;2024-03-02T12:40:20;4.10;;;3.63;;
4375;SDS011;2202;50.866;12.750;2024-03-02T12:42:48;7.60;;;4.13;;
4375;SDS011;2202;50.866;12.750;2024-03-02T12:45:16;9.47;;;6.30;;
4375;SDS011;2202;50.866;12.750;2024-03-02T12:47:48;8.00;;;4.77;;
4375;SDS011;2202;50.866;12.750;2024-03-02T12:50:18;9.60;;;5.63;;
4375;SDS011;2202;50.866;12.750;2024-03-02T12:52:50;15.80;;;7.20;;
4375;SDS011;2202;50.866;12.750;2024-03-02T12:55:19;9.00;;;6.47;;
4375;SDS011;2202;50.866;12.750;2024-03-02T12:57:47;7.43;;;6.60;;
4375;SDS011;2202;50.866;12.750;2024-03-02T13:00:17;13.80;;;8.00;;
4375;SDS011;2202;50.866;12.750;2024-03-02T13:02:45;10.07;;;7.57;;
4375;SDS011;2202;50.866;12.750;2024-03-02T13:05:13;8.40;;;6.53;;
4375;SDS011;2202;50.866;12.750;2024-03-02T13:07:41;8.80;;;7.50;;
4375;SDS011;2202;50.866;12.750;2024-03-02T13:10:10;8.07;;;7.10;;
4375;SDS011;2202;50.866;12.750;2024-03-02T13:12:38;12.13;;;8.50;;
4375;SDS011;2202;50.866;12.750;2024-03-02T13:15:05;11.00;;;7.20;;
4375;SDS011;2202;50.866;12.750;2024-03-02T13:17:34;12.33;;;8.10;;
4375;SDS011;2202;50.866;12.750;2024-03-02T13:20:02;9.70;;;8.17;;
4375;SDS011;2202;50.866;12.750;2024-03-02T13:22:33;14.67;;;7.30;;
4375;SDS011;2202;50.866;12.750;2024-03-02T13:25:01;11.20;;;7.83;;
4375;SDS011;2202;50.866;12.750;2024-03-02T13:27:29;9.23;;;6.60;;
4375;SDS011;2202;50.866;12.750;2024-03-02T13:29:56;9.57;;;6.90;;
4375;SDS011;2202;50.866;12.750;2024-03-02T13:32:23;9.53;;;6.40;;
4375;SDS011;2202;50.866;12.750;2024-03-02T13:34:51;10.17;;;7.27;;
4375;SDS011;2202;50.866;12.750;2024-03-02T13:37:18;11.40;;;6.53;;
4375;SDS011;2202;50.866;12.750;2024-03-02T13:39:45;8.10;;;6.10;;
4375;SDS011;2202;50.866;12.750;2024-03-02T13:42:14;9.90;;;7.40;;
4375;SDS011;2202;50.866;12.750;2024-03-02T13:44:41;11.10;;;6.40;;
4375;SDS011;2202;50.866;12.750;2024-03-02T13:47:11;12.43;;;7.17;;
4375;SDS011;2202;50.866;12.750;2024-03-02T13:49:38;14.00;;;8.20;;
4375;SDS011;2202;50.866;12.750;2024-03-02T13:52:08;10.57;;;6.60;;
4375;SDS011;2202;50.866;12.750;2024-03-02T13:54:38;10.17;;;6.77;;
4375;SDS011;2202;50.866;12.750;2024-03-02T13:57:05;8.60;;;6.60;;
4375;SDS011;2202;50.866;12.750;2024-03-02T13:59:33;10.70;;;6.20;;
4375;SDS011;2202;50.866;12.750;2024-03-02T14:02:01;10.93;;;6.57;;
4375;SDS011;2202;50.866;12.750;2024-03-02T14:04:30;11.50;;;7.53;;
4375;SDS011;2202;50.866;12.750;2024-03-02T14:06:58;19.17;;;7.57;;
4375;SDS011;2202;50.866;12.750;2024-03-02T14:09:25;13.47;;;7.63;;
4375;SDS011;2202;50.866;12.750;2024-03-02T14:11:52;10.33;;;6.83;;
4375;SDS011;2202;50.866;12.750;2024-03-02T14:14:19;8.47;;;6.07;;
4375;SDS011;2202;50.866;12.750;2024-03-02T14:16:47;9.83;;;6.30;;
4375;SDS011;2202;50.866;12.750;2024-03-02T14:19:14;9.70;;;5.80;;
4375;SDS011;2202;50.866;12.750;2024-03-02T14:21:41;6.70;;;4.77;;
4375;SDS011;2202;50.866;12.750;2024-03-02T14:24:08;9.43;;;4.60;;
4375;SDS011;2202;50.866;12.750;2024-03-02T14:26:35;10.37;;;5.90;;
4375;SDS011;2202;50.866;12.750;2024-03-02T14:29:03;11.53;;;8.10;;
4375;SDS011;2202;50.866;12.750;2024-03-02T14:31:30;8.90;;;6.60;;
4375;SDS011;2202;50.866;12.750;2024-03-02T14:33:59;9.10;;;5.30;;
4375;SDS011;2202;50.866;12.750;2024-03-02T14:36:26;9.00;;;6.40;;
4375;SDS011;2202;50.866;12.750;2024-03-02T14:38:53;11.47;;;8.73;;
4375;SDS011;2202;50.866;12.750;2024-03-02T14:41:20;11.40;;;6.73;;
4375;SDS011;2202;50.866;12.750;2024-03-02T14:43:49;7.90;;;5.70;;
4375;SDS011;2202;50.866;12.750;2024-03-02T14:46:16;8.03;;;6.50;;
4375;SDS011;2202;50.866;12.750;2024-03-02T14:48:43;9.33;;;6.77;;